sensor_id;sensor_type;location;lat;lon;timestamp;pressure;altitude;pressure_sealevel;temperature;humidity
55664;BME280;41540;57.880;12.164;2022-08-19T00:09:19;99755.59;;;17.33;100.00
55664;BME280;41540;57.880;12.164;2022-08-19T00:19:20;99757.81;;;17.50;100.00
55664;BME280;41540;57.880;12.164;2022-08-19T00:29:21;99750.34;;;17.34;100.00
55664;BME280;41540;57.880;12.164;2022-08-19T00:39:22;99507.81;;;15.84;100.00
55664;BME280;41540;57.880;12.164;2022-08-19T00:49:33;99614.97;;;16.65;100.00
55664;BME280;41540;57.880;12.164;2022-08-19T00:59:38;99725.94;;;17.34;100.00
55664;BME280;41540;57.880;12.164;2022-08-19T01:09:39;99655.50;;;16.86;100.00
55664;BME280;41540;57.880;12.164;2022-08-19T01:19:41;99626.53;;;16.54;100.00
55664;BME280;41540;57.880;12.164;2022-08-19T01:29:43;99715.56;;;16.90;100.00
55664;BME280;41540;57.880;12.164;2022-08-19T01:39:45;99709.16;;;17.05;100.00
55664;BME280;41540;57.880;12.164;2022-08-19T01:49:45;99740.16;;;17.22;100.00
55664;BME280;41540;57.880;12.164;2022-08-19T01:59:46;99761.84;;;17.27;100.00
55664;BME280;41540;57.880;12.164;2022-08-19T02:09:47;99772.41;;;17.23;100.00
55664;BME280;41540;57.880;12.164;2022-08-19T02:19:48;99726.75;;;16.97;100.00
55664;BME280;41540;57.880;12.164;2022-08-19T02:29:50;99484.91;;;15.54;100.00
55664;BME280;41540;57.880;12.164;2022-08-19T02:39:50;99711.19;;;16.91;100.00
55664;BME280;41540;57.880;12.164;2022-08-19T02:49:50;99731.06;;;17.00;100.00
55664;BME280;41540;57.880;12.164;2022-08-19T02:59:52;99665.59;;;16.20;100.00
55664;BME280;41540;57.880;12.164;2022-08-19T03:09:52;99709.91;;;16.68;100.00
55664;BME280;41540;57.880;12.164;2022-08-19T03:19:52;99766.06;;;16.94;100.00
55664;BME280;41540;57.880;12.164;2022-08-19T03:29:53;99766.28;;;16.82;100.00
55664;BME280;41540;57.880;12.164;2022-08-19T03:39:53;99760.72;;;16.99;100.00
55664;BME280;41540;57.880;12.164;2022-08-19T03:49:54;99770.41;;;16.93;100.00
55664;BME280;41540;57.880;12.164;2022-08-19T03:59:54;99750.66;;;16.79;100.00
55664;BME280;41540;57.880;12.164;2022-08-19T04:09:54;99756.09;;;16.69;100.00
55664;BME280;41540;57.880;12.164;2022-08-19T04:19:55;99679.81;;;16.04;100.00
55664;BME280;41540;57.880;12.164;2022-08-19T04:29:55;99708.69;;;16.43;100.00
55664;BME280;41540;57.880;12.164;2022-08-19T04:39:56;99753.00;;;16.49;100.00
55664;BME280;41540;57.880;12.164;2022-08-19T04:50:35;99615.91;;;15.76;100.00
55664;BME280;41540;57.880;12.164;2022-08-19T05:00:38;99752.19;;;16.47;100.00
55664;BME280;41540;57.880;12.164;2022-08-19T05:10:38;99766.59;;;16.66;100.00
55664;BME280;41540;57.880;12.164;2022-08-19T05:20:39;99795.03;;;16.85;100.00
55664;BME280;41540;57.880;12.164;2022-08-19T05:30:58;99732.97;;;16.48;100.00
55664;BME280;41540;57.880;12.164;2022-08-19T05:40:59;99749.25;;;16.15;100.00
55664;BME280;41540;57.880;12.164;2022-08-19T05:51:03;99786.31;;;16.39;100.00
55664;BME280;41540;57.880;12.164;2022-08-19T06:01:10;99802.19;;;16.73;100.00
55664;BME280;41540;57.880;12.164;2022-08-19T06:11:21;99791.19;;;17.01;100.00
55664;BME280;41540;57.880;12.164;2022-08-19T06:21:25;99784.78;;;16.72;100.00
55664;BME280;41540;57.880;12.164;2022-08-19T06:31:28;99611.56;;;16.21;100.00
55664;BME280;41540;57.880;12.164;2022-08-19T06:41:29;99657.88;;;16.56;100.00
55664;BME280;41540;57.880;12.164;2022-08-19T06:51:30;99760.13;;;17.26;100.00
55664;BME280;41540;57.880;12.164;2022-08-19T07:01:41;99811.56;;;17.66;100.00
55664;BME280;41540;57.880;12.164;2022-08-19T07:11:50;99679.81;;;16.89;100.00
55664;BME280;41540;57.880;12.164;2022-08-19T07:21:53;99724.41;;;17.24;100.00
55664;BME280;41540;57.880;12.164;2022-08-19T07:31:54;99812.66;;;17.95;100.00
55664;BME280;41540;57.880;12.164;2022-08-19T07:42:01;99818.91;;;18.24;100.00
55664;BME280;41540;57.880;12.164;2022-08-19T07:52:05;99780.44;;;17.91;100.00
55664;BME280;41540;57.880;12.164;2022-08-19T08:02:07;99846.41;;;18.76;100.00
55664;BME280;41540;57.880;12.164;2022-08-19T08:12:12;99897.38;;;19.00;100.00
55664;BME280;41540;57.880;12.164;2022-08-19T08:22:16;99894.44;;;19.42;100.00
55664;BME280;41540;57.880;12.164;2022-08-19T08:32:36;99783.81;;;18.94;100.00
55664;BME280;41540;57.880;12.164;2022-08-19T08:42:42;99847.09;;;19.44;100.00
55664;BME280;41540;57.880;12.164;2022-08-19T08:52:47;99797.69;;;19.28;100.00
55664;BME280;41540;57.880;12.164;2022-08-19T09:02:48;99888.31;;;21.29;100.00
55664;BME280;41540;57.880;12.164;2022-08-19T09:22:55;100066.22;;;22.11;100.00
55664;BME280;41540;57.880;12.164;2022-08-19T09:32:56;100034.44;;;21.91;100.00
55664;BME280;41540;57.880;12.164;2022-08-19T09:42:56;100006.09;;;21.97;100.00
55664;BME280;41540;57.880;12.164;2022-08-19T09:52:57;100068.50;;;23.31;100.00
55664;BME280;41540;57.880;12.164;2022-08-19T10:02:58;100104.59;;;24.12;100.00
55664;BME280;41540;57.880;12.164;2022-08-19T10:12:59;100050.69;;;23.55;100.00
55664;BME280;41540;57.880;12.164;2022-08-19T10:22:59;100090.34;;;24.89;100.00
55664;BME280;41540;57.880;12.164;2022-08-19T10:32:59;100064.28;;;24.63;100.00
55664;BME280;41540;57.880;12.164;2022-08-19T10:43:00;100004.50;;;23.64;100.00
55664;BME280;41540;57.880;12.164;2022-08-19T10:53:03;100098.94;;;24.20;100.00
55664;BME280;41540;57.880;12.164;2022-08-19T11:03:04;100041.78;;;24.54;100.00
55664;BME280;41540;57.880;12.164;2022-08-19T11:13:04;100051.25;;;24.77;100.00
55664;BME280;41540;57.880;12.164;2022-08-19T11:23:04;100110.22;;;25.70;100.00
55664;BME280;41540;57.880;12.164;2022-08-19T11:33:05;100061.44;;;25.39;100.00
55664;BME280;41540;57.880;12.164;2022-08-19T11:43:05;100059.59;;;25.04;100.00
55664;BME280;41540;57.880;12.164;2022-08-19T11:53:06;100050.16;;;23.88;100.00
55664;BME280;41540;57.880;12.164;2022-08-19T12:03:07;100098.41;;;25.05;100.00
55664;BME280;41540;57.880;12.164;2022-08-19T12:13:09;100073.22;;;24.79;100.00
55664;BME280;41540;57.880;12.164;2022-08-19T12:23:10;99993.56;;;24.28;100.00
55664;BME280;41540;57.880;12.164;2022-08-19T12:33:10;100066.28;;;24.77;100.00
55664;BME280;41540;57.880;12.164;2022-08-19T12:43:11;100035.25;;;24.42;100.00
55664;BME280;41540;57.880;12.164;2022-08-19T12:53:11;100078.81;;;24.73;100.00
55664;BME280;41540;57.880;12.164;2022-08-19T13:03:12;99971.59;;;24.09;100.00
55664;BME280;41540;57.880;12.164;2022-08-19T13:13:12;100055.44;;;24.45;100.00
55664;BME280;41540;57.880;12.164;2022-08-19T13:23:13;100038.72;;;24.25;100.00
55664;BME280;41540;57.880;12.164;2022-08-19T13:33:13;99977.47;;;23.76;100.00
55664;BME280;41540;57.880;12.164;2022-08-19T13:43:14;100026.06;;;24.68;100.00
55664;BME280;41540;57.880;12.164;2022-08-19T13:53:16;100026.91;;;24.51;100.00
55664;BME280;41540;57.880;12.164;2022-08-19T14:03:16;100030.75;;;24.44;100.00
55664;BME280;41540;57.880;12.164;2022-08-19T14:13:19;100060.06;;;24.95;100.00
55664;BME280;41540;57.880;12.164;2022-08-19T14:23:20;100052.94;;;24.78;100.00
55664;BME280;41540;57.880;12.164;2022-08-19T14:33:20;100044.19;;;24.59;100.00
55664;BME280;41540;57.880;12.164;2022-08-19T14:43:21;100048.47;;;24.42;100.00
55664;BME280;41540;57.880;12.164;2022-08-19T14:53:22;99972.97;;;24.54;100.00
55664;BME280;41540;57.880;12.164;2022-08-19T15:03:22;100039.94;;;24.56;100.00
55664;BME280;41540;57.880;12.164;2022-08-19T15:13:23;99973.25;;;24.29;100.00
55664;BME280;41540;57.880;12.164;2022-08-19T15:23:26;99957.06;;;23.80;100.00
55664;BME280;41540;57.880;12.164;2022-08-19T15:33:26;99932.69;;;22.94;100.00
55664;BME280;41540;57.880;12.164;2022-08-19T15:43:27;99943.53;;;22.88;100.00
55664;BME280;41540;57.880;12.164;2022-08-19T15:53:28;99951.44;;;22.67;100.00
55664;BME280;41540;57.880;12.164;2022-08-19T16:03:29;99871.28;;;21.83;100.00
55664;BME280;41540;57.880;12.164;2022-08-19T16:13:49;99862.03;;;21.73;100.00
55664;BME280;41540;57.880;12.164;2022-08-19T16:23:51;99938.97;;;22.06;100.00
55664;BME280;41540;57.880;12.164;2022-08-19T16:33:51;99831.91;;;21.11;100.00
55664;BME280;41540;57.880;12.164;2022-08-19T16:43:51;99966.03;;;21.64;100.00
55664;BME280;41540;57.880;12.164;2022-08-19T16:53:52;99963.75;;;21.55;100.00
55664;BME280;41540;57.880;12.164;2022-08-19T17:03:54;99955.88;;;21.30;100.00
55664;BME280;41540;57.880;12.164;2022-08-19T17:13:54;99910.13;;;20.83;100.00
55664;BME280;41540;57.880;12.164;2022-08-19T17:23:59;99945.38;;;20.79;100.00
55664;BME280;41540;57.880;12.164;2022-08-19T17:34:00;99910.63;;;20.41;100.00
55664;BME280;41540;57.880;12.164;2022-08-19T17:44:02;99898.25;;;20.18;100.00
55664;BME280;41540;57.880;12.164;2022-08-19T17:54:03;99873.03;;;20.11;100.00
55664;BME280;41540;57.880;12.164;2022-08-19T18:04:05;99844.19;;;19.83;100.00
55664;BME280;41540;57.880;12.164;2022-08-19T18:14:06;99890.00;;;20.02;100.00
55664;BME280;41540;57.880;12.164;2022-08-19T18:24:06;99746.84;;;19.01;100.00
55664;BME280;41540;57.880;12.164;2022-08-19T18:34:07;99866.25;;;19.47;100.00
55664;BME280;41540;57.880;12.164;2022-08-19T18:44:09;99878.84;;;19.66;100.00
55664;BME280;41540;57.880;12.164;2022-08-19T18:54:29;99884.41;;;19.55;100.00
55664;BME280;41540;57.880;12.164;2022-08-19T19:04:31;99788.91;;;19.00;100.00
55664;BME280;41540;57.880;12.164;2022-08-19T19:14:35;99815.78;;;19.08;100.00
55664;BME280;41540;57.880;12.164;2022-08-19T19:24:39;99799.53;;;18.95;100.00
55664;BME280;41540;57.880;12.164;2022-08-19T19:34:43;99692.41;;;18.17;100.00
55664;BME280;41540;57.880;12.164;2022-08-19T19:44:43;99693.09;;;17.92;100.00
55664;BME280;41540;57.880;12.164;2022-08-19T19:54:47;99710.75;;;17.84;100.00
55664;BME280;41540;57.880;12.164;2022-08-19T20:04:48;99638.00;;;17.25;100.00
55664;BME280;41540;57.880;12.164;2022-08-19T20:14:49;99737.47;;;17.99;100.00
55664;BME280;41540;57.880;12.164;2022-08-19T20:24:50;99630.69;;;17.40;100.00
55664;BME280;41540;57.880;12.164;2022-08-19T20:34:52;99727.34;;;17.85;100.00
55664;BME280;41540;57.880;12.164;2022-08-19T20:44:53;99601.53;;;17.18;100.00
55664;BME280;41540;57.880;12.164;2022-08-19T20:54:53;99670.06;;;17.69;100.00
55664;BME280;41540;57.880;12.164;2022-08-19T21:04:53;99672.31;;;17.50;100.00
55664;BME280;41540;57.880;12.164;2022-08-19T21:14:54;99655.38;;;17.64;100.00
55664;BME280;41540;57.880;12.164;2022-08-19T21:24:54;99500.53;;;16.74;100.00
55664;BME280;41540;57.880;12.164;2022-08-19T21:34:55;99629.50;;;17.86;100.00
55664;BME280;41540;57.880;12.164;2022-08-19T21:44:55;99604.25;;;17.82;100.00
55664;BME280;41540;57.880;12.164;2022-08-19T21:54:56;99550.19;;;17.79;100.00
55664;BME280;41540;57.880;12.164;2022-08-19T22:04:57;99476.41;;;17.33;100.00
55664;BME280;41540;57.880;12.164;2022-08-19T22:14:57;99357.88;;;16.64;100.00
55664;BME280;41540;57.880;12.164;2022-08-19T22:25:03;99526.84;;;17.71;100.00
55664;BME280;41540;57.880;12.164;2022-08-19T22:35:04;99452.69;;;17.38;100.00
55664;BME280;41540;57.880;12.164;2022-08-19T22:45:09;99504.16;;;17.70;100.00
55664;BME280;41540;57.880;12.164;2022-08-19T22:55:10;99463.50;;;17.57;100.00
55664;BME280;41540;57.880;12.164;2022-08-19T23:05:11;99442.94;;;17.45;100.00
55664;BME280;41540;57.880;12.164;2022-08-19T23:15:23;99534.91;;;17.95;100.00
55664;BME280;41540;57.880;12.164;2022-08-19T23:25:27;99571.56;;;17.97;100.00
55664;BME280;41540;57.880;12.164;2022-08-19T23:35:32;99459.00;;;17.31;100.00
55664;BME280;41540;57.880;12.164;2022-08-19T23:45:32;99478.59;;;17.16;100.00
55664;BME280;41540;57.880;12.164;2022-08-19T23:55:40;99472.97;;;16.97;100.00
